Time,TemperatureF,DewpointF,PressureIn,WindDirection,WindDirectionDegrees,WindSpeedMPH,WindSpeedGustMPH,Humidity,HourlyPrecipIn,Conditions,Clouds,dailyrainin,SolarRadiationWatts/m^2,SoftwareType,DateUTC
2013-10-18 00:02:00,44.0,33.0,-100.00,WSW,246,0.0,0.0,65,0.00,,,0.00,0.000000,,2013-10-18 07:02:00,
2013-10-18 00:42:00,44.0,32.0,-100.00,WSW,254,0.0,3.0,63,0.00,,,0.00,0.000000,,2013-10-18 07:42:00,
2013-10-18 00:52:00,44.0,32.0,-100.00,WSW,254,0.0,3.0,63,0.00,,,0.00,0.000000,,2013-10-18 07:52:00,
2013-10-18 01:02:00,44.0,32.0,-100.00,WSW,254,0.0,3.0,63,0.00,,,0.00,0.000000,,2013-10-18 08:02:00,
2013-10-18 01:42:00,43.0,32.0,-100.00,SW,233,0.0,5.0,64,0.00,,,0.00,0.000000,,2013-10-18 08:42:00,
2013-10-18 01:52:00,43.0,32.0,-100.00,SW,233,0.0,5.0,64,0.00,,,0.00,0.000000,,2013-10-18 08:52:00,
2013-10-18 02:02:00,43.0,32.0,-100.00,SW,233,0.0,5.0,64,0.00,,,0.00,0.000000,,2013-10-18 09:02:00,
2013-10-18 02:43:00,43.0,31.0,-100.00,West,259,0.0,0.0,63,0.00,,,0.00,0.000000,,2013-10-18 09:43:00,
2013-10-18 02:53:00,43.0,31.0,-100.00,West,259,0.0,0.0,63,0.00,,,0.00,0.000000,,2013-10-18 09:53:00,
2013-10-18 03:03:00,43.0,31.0,-100.00,West,259,0.0,0.0,63,0.00,,,0.00,0.000000,,2013-10-18 10:03:00,
2013-10-18 03:43:00,42.0,32.0,-100.00,WSW,244,0.0,4.0,67,0.00,,,0.00,0.000000,,2013-10-18 10:43:00,
2013-10-18 03:53:00,42.0,32.0,-100.00,WSW,244,0.0,4.0,67,0.00,,,0.00,0.000000,,2013-10-18 10:53:00,
2013-10-18 04:02:00,42.0,32.0,-100.00,WSW,244,0.0,4.0,67,0.00,,,0.00,0.000000,,2013-10-18 11:02:00,
2013-10-18 04:42:00,40.0,30.0,-100.00,WSW,252,0.0,3.0,68,0.00,,,-99.99,0.000000,,2013-10-18 11:42:00,
2013-10-18 04:52:00,40.0,30.0,-100.00,WSW,252,0.0,3.0,68,0.00,,,-99.99,0.000000,,2013-10-18 11:52:00,
2013-10-18 05:01:00,40.0,30.0,-100.00,WSW,252,0.0,3.0,68,0.00,,,-99.99,0.000000,,2013-10-18 12:01:00,
2013-10-18 05:42:00,42.0,31.0,-100.00,WSW,248,0.0,0.0,65,0.00,,,0.00,0.000000,,2013-10-18 12:42:00,
2013-10-18 05:52:00,42.0,31.0,-100.00,WSW,248,0.0,0.0,65,0.00,,,0.00,0.000000,,2013-10-18 12:52:00,
2013-10-18 06:01:00,42.0,31.0,-100.00,WSW,248,0.0,0.0,65,0.00,,,0.00,0.000000,,2013-10-18 13:01:00,
2013-10-18 06:42:00,41.0,30.0,-100.00,West,271,0.0,3.0,64,0.00,,,0.00,0.000000,,2013-10-18 13:42:00,
2013-10-18 06:52:00,41.0,30.0,-100.00,West,271,0.0,3.0,64,0.00,,,0.00,0.000000,,2013-10-18 13:52:00,
2013-10-18 07:01:00,41.0,30.0,-100.00,West,271,0.0,3.0,64,0.00,,,0.00,0.000000,,2013-10-18 14:01:00,
2013-10-18 07:42:00,41.0,30.0,-100.00,SSW,208,0.0,6.0,64,0.00,,,0.00,0.000000,,2013-10-18 14:42:00,
2013-10-18 07:52:00,41.0,30.0,-100.00,SSW,208,0.0,6.0,64,0.00,,,0.00,0.000000,,2013-10-18 14:52:00,
2013-10-18 08:02:00,41.0,30.0,-100.00,SSW,208,0.0,6.0,64,0.00,,,0.00,0.000000,,2013-10-18 15:02:00,
2013-10-18 08:43:00,43.0,31.0,-100.00,WSW,250,0.0,6.0,62,0.00,,,0.00,35.000000,,2013-10-18 15:43:00,
2013-10-18 08:54:00,43.0,31.0,-100.00,WSW,250,0.0,6.0,62,0.00,,,0.00,35.000000,,2013-10-18 15:54:00,
2013-10-18 09:04:00,43.0,31.0,-100.00,WSW,250,0.0,6.0,62,0.00,,,0.00,35.000000,,2013-10-18 16:04:00,
2013-10-18 09:42:00,50.0,32.0,-100.00,NE,41,2.0,6.0,50,0.00,,,0.00,299.000000,,2013-10-18 16:42:00,
2013-10-18 10:42:00,52.0,33.0,-100.00,West,259,3.0,10.0,48,0.00,,,0.00,368.000000,,2013-10-18 17:42:00,
2013-10-18 10:52:00,52.0,33.0,-100.00,West,259,3.0,10.0,48,0.00,,,0.00,368.000000,,2013-10-18 17:52:00,
2013-10-18 11:02:00,52.0,33.0,-100.00,West,259,3.0,10.0,48,0.00,,,0.00,368.000000,,2013-10-18 18:02:00,
2013-10-18 11:42:00,55.0,33.0,-100.00,West,273,4.0,12.0,44,0.00,,,0.00,634.000000,,2013-10-18 18:42:00,
2013-10-18 12:42:00,55.0,32.0,-100.00,West,263,5.0,12.0,41,0.00,,,0.00,724.000000,,2013-10-18 19:42:00,
2013-10-18 12:52:00,55.0,32.0,-100.00,West,263,5.0,12.0,41,0.00,,,0.00,724.000000,,2013-10-18 19:52:00,
2013-10-18 13:02:00,55.0,32.0,-100.00,West,263,5.0,12.0,41,0.00,,,0.00,724.000000,,2013-10-18 20:02:00,
2013-10-18 13:42:00,58.0,33.0,-100.00,WSW,255,6.0,12.0,38,0.00,,,0.00,746.000000,,2013-10-18 20:42:00,
2013-10-18 13:52:00,58.0,33.0,-100.00,WSW,255,6.0,12.0,38,0.00,,,0.00,746.000000,,2013-10-18 20:52:00,
2013-10-18 14:02:00,58.0,33.0,-100.00,WSW,255,6.0,12.0,38,0.00,,,0.00,746.000000,,2013-10-18 21:02:00,
2013-10-18 14:44:00,58.0,33.0,-100.00,WSW,255,5.0,12.0,38,0.00,,,0.00,697.000000,,2013-10-18 21:44:00,
2013-10-18 14:54:00,58.0,33.0,-100.00,WSW,255,5.0,12.0,38,0.00,,,0.00,697.000000,,2013-10-18 21:54:00,
2013-10-18 15:04:00,58.0,33.0,-100.00,WSW,255,5.0,12.0,38,0.00,,,0.00,697.000000,,2013-10-18 22:04:00,
2013-10-18 15:43:00,60.0,32.0,-100.00,WSW,243,4.0,12.0,35,0.00,,,0.00,584.000000,,2013-10-18 22:43:00,
2013-10-18 15:54:00,60.0,32.0,-100.00,WSW,243,4.0,12.0,35,0.00,,,0.00,584.000000,,2013-10-18 22:54:00,
2013-10-18 16:03:00,60.0,32.0,-100.00,WSW,243,4.0,12.0,35,0.00,,,0.00,584.000000,,2013-10-18 23:03:00,
2013-10-18 16:43:00,59.0,33.0,-100.00,WSW,253,3.0,10.0,38,0.00,,,-99.99,418.000000,,2013-10-18 23:43:00,
2013-10-18 16:53:00,59.0,33.0,-100.00,WSW,253,3.0,10.0,38,0.00,,,-99.99,418.000000,,2013-10-18 23:53:00,
2013-10-18 17:01:00,59.0,33.0,-100.00,WSW,253,3.0,10.0,38,0.00,,,-99.99,418.000000,,2013-10-19 00:01:00,
2013-10-18 17:42:00,54.0,33.0,-100.00,SW,235,3.0,10.0,45,0.00,,,0.00,30.000000,,2013-10-19 00:42:00,
2013-10-18 17:52:00,54.0,33.0,-100.00,SW,235,3.0,10.0,45,0.00,,,0.00,30.000000,,2013-10-19 00:52:00,
2013-10-18 18:02:00,54.0,33.0,-100.00,SW,235,3.0,10.0,45,0.00,,,0.00,30.000000,,2013-10-19 01:02:00,
2013-10-18 18:42:00,48.0,35.0,-100.00,WSW,244,0.0,7.0,61,0.00,,,0.00,8.000000,,2013-10-19 01:42:00,
2013-10-18 18:53:00,48.0,35.0,-100.00,WSW,244,0.0,7.0,61,0.00,,,0.00,8.000000,,2013-10-19 01:53:00,
2013-10-18 19:02:00,48.0,35.0,-100.00,WSW,244,0.0,7.0,61,0.00,,,0.00,8.000000,,2013-10-19 02:02:00,
2013-10-18 19:42:00,43.0,35.0,-100.00,SW,217,0.0,5.0,72,0.00,,,-99.99,0.000000,,2013-10-19 02:42:00,
2013-10-18 19:52:00,43.0,35.0,-100.00,SW,217,0.0,5.0,72,0.00,,,-99.99,0.000000,,2013-10-19 02:52:00,
2013-10-18 20:02:00,43.0,35.0,-100.00,SW,217,0.0,5.0,72,0.00,,,-99.99,0.000000,,2013-10-19 03:02:00,
2013-10-18 20:45:00,40.0,32.0,-100.00,SSW,206,0.0,0.0,72,0.00,,,0.00,0.000000,,2013-10-19 03:45:00,
2013-10-18 20:55:00,40.0,32.0,-100.00,SSW,206,0.0,0.0,72,0.00,,,0.00,0.000000,,2013-10-19 03:55:00,
2013-10-18 21:05:00,40.0,32.0,-100.00,SSW,206,0.0,0.0,72,0.00,,,0.00,0.000000,,2013-10-19 04:05:00,
2013-10-18 21:44:00,40.0,31.0,-100.00,South,184,0.0,0.0,71,0.00,,,0.00,0.000000,,2013-10-19 04:44:00,
2013-10-18 21:54:00,40.0,31.0,-100.00,South,184,0.0,0.0,71,0.00,,,0.00,0.000000,,2013-10-19 04:54:00,
2013-10-18 22:04:00,40.0,31.0,-100.00,South,184,0.0,0.0,71,0.00,,,0.00,0.000000,,2013-10-19 05:04:00,
2013-10-18 22:42:00,40.0,32.0,-100.00,SSE,159,0.0,0.0,72,0.00,,,0.00,0.000000,,2013-10-19 05:42:00,
2013-10-18 22:52:00,40.0,32.0,-100.00,SSE,159,0.0,0.0,72,0.00,,,0.00,0.000000,,2013-10-19 05:52:00,
2013-10-18 23:02:00,40.0,32.0,-100.00,SSE,159,0.0,0.0,72,0.00,,,0.00,0.000000,,2013-10-19 06:02:00,
2013-10-18 23:42:00,42.0,31.0,-100.00,ESE,114,0.0,0.0,66,0.00,,,-99.99,0.000000,,2013-10-19 06:42:00,
2013-10-18 23:52:00,42.0,31.0,-100.00,ESE,114,0.0,0.0,66,0.00,,,-99.99,0.000000,,2013-10-19 06:52:00,